Huvudsida
METAR-TAF:

METAR-TAF

Flygplatser :

Haugesunds flygplats. Karmøy

Haugesunds, Norge

latitud: 59-21N, longitud: 005-13E, höjd: 2 m

Aktuellt väderrapport

Denna rapport gjordes för 26 minuter sedan, klockan 01:50 UTC
Stilla vind
Temperatur 1°C
Fuktighet 93%
Tryck 1012 hPa
Sikt 10 km eller mer

METAR: ENHD 100150Z AUTO 00000KT 9999 R13///// R31/P2000N FEW034/// SCT049/// 01/M00 Q1012

Tid: 03:16 (02:16 UTC)

Väderprognos

Denna rapport gjordes för 9 timmar och 16 minuter sedan, klockan 17:00 UTC
Prognos gäller från 09 kl. 18 UTC till 09 kl. 22 UTC
Vind 30 kt från nord/nordväst
Sikt 10 km eller mer
Få moln på en höjd av 1500 ft, Högtornande cumulus.
Spridda moln på en höjd av 4000 ft
Blir
från 09 kl. 19 UTC till 09 kl. 21 UTC
Vind 20 kt från nord/nordväst

TAF: ENHD 091700Z 0918/0922 34030KT 9999 FEW015TCU SCT040 BECMG 0919/0921 34020KT

Aktuella väderrapporter och prognoser från 4000 flygplatser (METAR- och TAF-rapporter).

De tillgängliga stationerna syns som gula och röda prickar på kartan.

För musen över prickarna för att se namnen på stationerna.

Klicka sedan för att få väderrapporter och prognoser.

För att ändra kartan: Klicka på de gröna knapparna med ett svart kors på för att zooma in; den gröna knappen med ett streck på för att zooma ut; eller på de gröna pilarna för angränsande kartor.


METAR-TAF: